Time;durP1;ratioP1;P1;durP2;ratioP2;P2;SDS_P1;SDS_P2;PMS_P1;PMS_P2;Temp;Humidity;BMP_temperature;BMP_pressure;BME280_temperature;BME280_humidity;BME280_pressure;Samples;Min_cycle;Max_cycle;Signal;HPM_P1;HPM_P2
2023/06/20 00:00:19;;;;;;;4.57;4.10;;;21.70;99.90;;;;;;5117577;28;20178;-46
2023/06/20 00:02:44;;;;;;;5.73;3.93;;;21.70;99.90;;;;;;5117422;28;20596;-46
2023/06/20 00:05:10;;;;;;;4.37;3.40;;;21.70;99.90;;;;;;5117557;28;20201;-47
2023/06/20 00:07:36;;;;;;;6.67;4.00;;;21.70;99.90;;;;;;5117542;28;20533;-46
2023/06/20 00:10:01;;;;;;;5.07;3.70;;;21.70;99.90;;;;;;5117474;28;20206;-47
2023/06/20 00:12:27;;;;;;;5.63;4.03;;;21.60;99.90;;;;;;5117082;28;20198;-47
2023/06/20 00:14:53;;;;;;;6.63;3.77;;;21.50;99.90;;;;;;5117053;28;20194;-47
2023/06/20 00:17:18;;;;;;;8.30;3.77;;;21.50;99.90;;;;;;5117107;28;20178;-47
2023/06/20 00:19:44;;;;;;;6.57;4.00;;;21.50;99.90;;;;;;5116978;28;20194;-46
2023/06/20 00:22:10;;;;;;;4.50;3.27;;;21.50;99.90;;;;;;5117567;28;20178;-44
2023/06/20 00:24:35;;;;;;;6.23;3.60;;;21.40;99.90;;;;;;5117119;28;20209;-47
2023/06/20 00:27:02;;;;;;;12.83;4.27;;;21.40;99.90;;;;;;5116878;28;20174;-47
2023/06/20 00:29:27;;;;;;;5.37;4.03;;;21.30;99.90;;;;;;5117121;28;20269;-47
2023/06/20 00:31:53;;;;;;;7.00;4.70;;;21.30;99.90;;;;;;5116805;28;20320;-43
2023/06/20 00:34:19;;;;;;;7.10;4.97;;;21.30;99.90;;;;;;5117421;28;20608;-41
2023/06/20 00:36:44;;;;;;;6.73;4.73;;;21.20;99.90;;;;;;5116744;28;20182;-42
2023/06/20 00:39:10;;;;;;;6.07;4.10;;;21.10;99.90;;;;;;5116722;28;20174;-43
2023/06/20 00:41:36;;;;;;;6.90;4.20;;;21.00;99.90;;;;;;5116995;28;20210;-41
2023/06/20 00:44:03;;;;;;;12.90;4.50;;;21.10;99.90;;;;;;5116944;28;20259;-41
2023/06/20 00:46:31;;;;;;;11.40;4.13;;;21.10;99.90;;;;;;5116493;28;20179;-41
2023/06/20 00:48:57;;;;;;;16.53;4.10;;;21.00;99.90;;;;;;5116451;28;20673;-41
2023/06/20 00:51:23;;;;;;;5.77;3.93;;;21.10;99.90;;;;;;5116080;28;20229;-40
2023/06/20 00:53:48;;;;;;;9.87;4.37;;;21.00;99.90;;;;;;5116242;28;20202;-43
2023/06/20 00:56:15;;;;;;;7.40;4.17;;;21.10;99.90;;;;;;5116301;28;20170;-41
2023/06/20 00:58:41;;;;;;;9.33;4.57;;;21.00;99.90;;;;;;5116277;28;20174;-42
2023/06/20 01:01:06;;;;;;;8.57;4.30;;;21.00;99.90;;;;;;5116442;28;20180;-41
2023/06/20 01:03:36;;;;;;;5.70;4.17;;;21.00;99.90;;;;;;5116384;28;20642;-40
2023/06/20 01:06:09;;;;;;;6.90;4.13;;;21.00;99.90;;;;;;5116418;28;20185;-42
2023/06/20 01:08:58;;;;;;;7.13;4.10;;;20.90;99.90;;;;;;5116364;28;20505;-43
2023/06/20 01:11:48;;;;;;;15.07;3.90;;;20.90;99.90;;;;;;5115930;28;20202;-42
2023/06/20 01:14:27;;;;;;;10.87;4.30;;;20.80;99.90;;;;;;5116221;28;20201;-41
2023/06/20 01:17:11;;;;;;;8.50;4.10;;;20.80;99.90;;;;;;5116070;28;20183;-41
2023/06/20 01:20:10;;;;;;;9.27;4.57;;;20.80;99.90;;;;;;5116084;28;20186;-41
2023/06/20 01:22:56;;;;;;;6.33;3.60;;;20.70;99.90;;;;;;5116151;28;20245;-43
2023/06/20 01:26:00;;;;;;;9.50;3.90;;;20.70;99.90;;;;;;5116013;28;20225;-42
2023/06/20 01:28:46;;;;;;;7.73;3.80;;;20.70;99.90;;;;;;5116019;28;20308;-42
2023/06/20 01:31:15;;;;;;;8.87;3.80;;;20.70;99.90;;;;;;5115844;28;20674;-42
2023/06/20 01:33:52;;;;;;;5.53;3.37;;;20.70;99.90;;;;;;5115776;28;20175;-42
2023/06/20 01:36:20;;;;;;;4.90;3.83;;;20.60;99.90;;;;;;5115899;28;20161;-42
2023/06/20 01:38:49;;;;;;;6.80;4.03;;;20.60;99.90;;;;;;5115485;28;20282;-42
2023/06/20 01:41:20;;;;;;;7.73;3.97;;;20.50;99.90;;;;;;5115686;28;20166;-41
2023/06/20 01:43:47;;;;;;;7.43;3.57;;;20.50;99.90;;;;;;5115391;28;20331;-41
2023/06/20 01:46:15;;;;;;;5.37;3.60;;;20.50;99.90;;;;;;5115615;28;20322;-39
2023/06/20 01:48:41;;;;;;;6.33;3.63;;;20.50;99.90;;;;;;5097044;28;20266;-43
2023/06/20 01:51:07;;;;;;;5.17;3.23;;;20.50;99.90;;;;;;5115409;28;20334;-41
2023/06/20 01:53:35;;;;;;;5.57;3.57;;;20.50;99.90;;;;;;5115370;28;20205;-41
2023/06/20 01:56:02;;;;;;;7.20;3.33;;;20.50;99.90;;;;;;5115382;28;20235;-41
2023/06/20 01:58:30;;;;;;;6.27;3.50;;;20.50;99.90;;;;;;5115116;28;20182;-43
2023/06/20 02:00:57;;;;;;;10.03;4.30;;;20.50;99.90;;;;;;5115068;28;20176;-40
2023/06/20 02:03:26;;;;;;;6.33;3.43;;;20.50;99.90;;;;;;5114353;28;20171;-41
2023/06/20 02:05:54;;;;;;;4.37;3.27;;;20.50;99.90;;;;;;5114920;28;20688;-38
2023/06/20 02:08:22;;;;;;;8.93;3.60;;;20.40;99.90;;;;;;5114905;28;20171;-42
2023/06/20 02:10:49;;;;;;;6.60;3.60;;;20.50;99.90;;;;;;5115147;28;20613;-42
2023/06/20 02:13:15;;;;;;;7.03;4.00;;;20.50;99.90;;;;;;5114835;28;20185;-42
2023/06/20 02:15:41;;;;;;;8.57;4.03;;;20.40;99.90;;;;;;5114754;28;20202;-43
2023/06/20 02:18:06;;;;;;;7.57;3.70;;;20.40;99.90;;;;;;5114849;28;20199;-41
2023/06/20 02:20:33;;;;;;;5.33;3.83;;;20.40;99.90;;;;;;5114605;28;20190;-42
2023/06/20 02:23:01;;;;;;;4.33;3.47;;;20.40;99.90;;;;;;5114892;28;20579;-42
2023/06/20 02:25:31;;;;;;;4.10;3.43;;;20.40;99.90;;;;;;5114492;28;20677;-41
2023/06/20 02:27:57;;;;;;;5.00;3.37;;;20.40;99.90;;;;;;5115163;28;20162;-41
2023/06/20 02:30:28;;;;;;;4.40;3.67;;;20.40;99.90;;;;;;5115066;28;20170;-42
2023/06/20 02:32:57;;;;;;;6.27;3.53;;;20.40;99.90;;;;;;5114632;28;20561;-42
2023/06/20 02:35:24;;;;;;;4.60;3.20;;;20.40;99.90;;;;;;5114372;28;20266;-44
2023/06/20 02:37:53;;;;;;;4.10;3.20;;;20.40;99.90;;;;;;5114648;28;20185;-42
2023/06/20 02:40:23;;;;;;;7.23;3.77;;;20.40;99.90;;;;;;5115140;28;20181;-42
2023/06/20 02:42:49;;;;;;;4.00;3.20;;;20.40;99.90;;;;;;5114311;28;20665;-41
2023/06/20 02:45:14;;;;;;;4.80;3.83;;;20.40;99.90;;;;;;5114714;28;20202;-40
2023/06/20 02:48:01;;;;;;;7.33;3.97;;;20.40;99.90;;;;;;5114179;28;20175;-42
2023/06/20 02:50:41;;;;;;;4.23;3.20;;;20.30;99.90;;;;;;5114983;28;20220;-43
2023/06/20 02:53:25;;;;;;;3.83;3.40;;;20.30;99.90;;;;;;5114330;28;20198;-42
2023/06/20 02:55:59;;;;;;;5.30;3.47;;;20.30;99.90;;;;;;5114422;28;20163;-40
2023/06/20 02:58:27;;;;;;;14.10;4.07;;;20.30;99.90;;;;;;5114336;28;20170;-43
2023/06/20 03:00:53;;;;;;;10.10;3.70;;;20.30;99.90;;;;;;5114019;28;20220;-43
2023/06/20 03:03:25;;;;;;;5.07;4.20;;;20.20;99.90;;;;;;5113963;28;20253;-43
2023/06/20 03:05:56;;;;;;;6.67;4.10;;;20.20;99.90;;;;;;5095729;28;20159;-42
2023/06/20 03:08:27;;;;;;;5.20;3.93;;;20.10;99.90;;;;;;5114344;28;20649;-41
2023/06/20 03:10:54;;;;;;;5.00;4.10;;;20.10;99.90;;;;;;5114081;28;20223;-41
2023/06/20 03:13:21;;;;;;;6.53;4.20;;;20.00;99.90;;;;;;5114075;28;20178;-43
2023/06/20 03:15:49;;;;;;;4.90;3.80;;;20.00;99.90;;;;;;5113814;28;20197;-44
2023/06/20 03:18:18;;;;;;;8.43;4.10;;;20.00;99.90;;;;;;5113700;28;20171;-44
2023/06/20 03:20:45;;;;;;;6.20;3.33;;;20.00;99.90;;;;;;5114040;28;20319;-43
2023/06/20 03:23:11;;;;;;;4.63;2.73;;;19.90;99.90;;;;;;5113724;28;20217;-44
2023/06/20 03:25:36;;;;;;;4.33;2.80;;;19.90;99.90;;;;;;5113772;28;20235;-46
2023/06/20 03:28:02;;;;;;;3.07;2.73;;;19.80;99.90;;;;;;5114239;28;20218;-44
2023/06/20 03:30:28;;;;;;;6.07;2.73;;;19.80;99.90;;;;;;5113957;28;20182;-44
2023/06/20 03:32:53;;;;;;;6.03;2.73;;;19.80;99.90;;;;;;5114343;28;20213;-44
2023/06/20 03:35:19;;;;;;;7.20;3.00;;;19.70;99.90;;;;;;5114962;28;20198;-43
2023/06/20 03:37:44;;;;;;;5.03;2.70;;;19.60;99.90;;;;;;5113984;28;20182;-43
2023/06/20 03:40:11;;;;;;;5.30;2.80;;;19.70;99.90;;;;;;5113902;28;20178;-41
2023/06/20 03:42:36;;;;;;;3.03;2.60;;;19.60;99.90;;;;;;5095395;28;20182;-41
2023/06/20 03:45:02;;;;;;;4.23;2.60;;;19.70;99.90;;;;;;5113546;28;20200;-44
2023/06/20 03:47:28;;;;;;;5.53;2.83;;;19.60;99.90;;;;;;5113748;28;20189;-42
2023/06/20 03:49:54;;;;;;;7.23;2.83;;;19.60;99.90;;;;;;5113984;28;20182;-42
2023/06/20 03:52:19;;;;;;;3.20;2.80;;;19.70;99.90;;;;;;5113567;28;20690;-42
2023/06/20 03:54:45;;;;;;;3.73;2.47;;;19.70;99.90;;;;;;5113499;28;20215;-41
2023/06/20 03:57:11;;;;;;;2.90;2.60;;;19.70;99.90;;;;;;5113744;28;20177;-43
2023/06/20 03:59:36;;;;;;;6.60;2.77;;;19.70;99.90;;;;;;5113379;28;20187;-43
2023/06/20 04:02:02;;;;;;;3.37;2.70;;;19.70;99.90;;;;;;5113402;28;20189;-43
2023/06/20 04:04:29;;;;;;;4.77;3.10;;;19.70;99.90;;;;;;5113309;28;20206;-42
2023/06/20 04:06:55;;;;;;;4.80;2.87;;;19.70;99.90;;;;;;5113431;28;20251;-41
2023/06/20 04:09:25;;;;;;;3.70;3.00;;;19.60;99.90;;;;;;5113414;28;20617;-44
2023/06/20 04:11:50;;;;;;;6.43;2.80;;;19.60;99.90;;;;;;5113429;28;20609;-41
2023/06/20 04:14:16;;;;;;;4.30;2.97;;;19.60;99.90;;;;;;5113484;28;20194;-42
2023/06/20 04:16:42;;;;;;;4.13;3.20;;;19.70;99.90;;;;;;5113309;28;20524;-43
2023/06/20 04:19:07;;;;;;;3.67;2.80;;;19.60;99.90;;;;;;5113169;28;20194;-42
2023/06/20 04:21:33;;;;;;;5.30;2.83;;;19.60;99.90;;;;;;5113185;28;20261;-42
2023/06/20 04:23:58;;;;;;;5.37;2.73;;;19.70;99.90;;;;;;5113110;28;20201;-41
2023/06/20 04:26:24;;;;;;;5.07;2.80;;;19.70;99.90;;;;;;5115096;28;20210;-43
2023/06/20 04:28:50;;;;;;;3.53;2.60;;;19.70;99.90;;;;;;5117175;28;20182;-42
2023/06/20 04:31:15;;;;;;;3.10;2.70;;;19.60;99.90;;;;;;5116759;28;20202;-40
2023/06/20 04:33:43;;;;;;;4.70;2.73;;;19.70;99.90;;;;;;5117142;28;20170;-40
2023/06/20 04:36:15;;;;;;;4.13;2.97;;;19.70;99.90;;;;;;5098886;28;20182;-41
2023/06/20 04:38:43;;;;;;;3.70;2.70;;;19.70;99.90;;;;;;5116727;28;20193;-43
2023/06/20 04:41:09;;;;;;;5.50;2.83;;;19.70;99.90;;;;;;5116952;28;20210;-41
2023/06/20 04:43:37;;;;;;;3.37;2.50;;;19.70;99.90;;;;;;5116739;28;20305;-41
2023/06/20 04:46:03;;;;;;;4.83;3.17;;;19.70;99.90;;;;;;5116759;28;20261;-42
2023/06/20 04:48:30;;;;;;;6.90;3.10;;;19.70;99.90;;;;;;5116440;28;20217;-42
2023/06/20 04:50:56;;;;;;;4.07;2.60;;;19.70;99.90;;;;;;5116671;28;20182;-44
2023/06/20 04:53:22;;;;;;;4.50;3.20;;;19.80;99.90;;;;;;5116371;28;20178;-43
2023/06/20 04:55:49;;;;;;;5.70;3.30;;;19.80;99.90;;;;;;5116903;28;20182;-41
2023/06/20 04:58:15;;;;;;;5.53;3.23;;;19.80;99.90;;;;;;5116376;28;20178;-41
2023/06/20 05:00:40;;;;;;;7.30;3.10;;;19.80;99.90;;;;;;5116586;28;20178;-44
2023/06/20 05:03:06;;;;;;;7.37;3.70;;;19.90;99.90;;;;;;5116312;28;20613;-40
2023/06/20 05:05:32;;;;;;;5.13;3.27;;;19.90;99.90;;;;;;5116210;28;20738;-41
2023/06/20 05:07:57;;;;;;;4.50;3.33;;;20.00;99.90;;;;;;5116164;28;20185;-42
2023/06/20 05:10:23;;;;;;;3.93;3.50;;;20.00;99.90;;;;;;5116104;28;20260;-43
2023/06/20 05:12:49;;;;;;;6.20;3.60;;;20.10;99.90;;;;;;5116280;28;20213;-41
2023/06/20 05:15:15;;;;;;;6.23;3.57;;;20.10;99.90;;;;;;5116024;28;20190;-42
2023/06/20 05:17:40;;;;;;;3.93;3.50;;;20.20;99.90;;;;;;5116092;28;20632;-42
2023/06/20 05:20:06;;;;;;;5.87;3.70;;;20.30;99.90;;;;;;5115974;28;20201;-43
2023/06/20 05:22:35;;;;;;;4.00;3.43;;;20.30;99.90;;;;;;5116192;28;20182;-42
2023/06/20 05:25:01;;;;;;;4.47;3.07;;;20.40;99.90;;;;;;5115857;28;20288;-42
2023/06/20 05:27:27;;;;;;;5.07;3.40;;;20.40;99.90;;;;;;5115828;28;20170;-43
2023/06/20 05:29:52;;;;;;;3.73;3.30;;;20.50;99.90;;;;;;5097542;28;20185;-43
2023/06/20 05:32:18;;;;;;;3.77;3.47;;;20.50;99.90;;;;;;5115623;28;20229;-43
2023/06/20 05:34:44;;;;;;;6.07;3.57;;;20.60;99.90;;;;;;5115574;28;20222;-41
2023/06/20 05:37:09;;;;;;;5.43;3.53;;;20.60;99.90;;;;;;5114924;28;20198;-39
2023/06/20 05:39:35;;;;;;;4.13;3.40;;;20.70;99.90;;;;;;5115733;28;20182;-42
2023/06/20 05:42:01;;;;;;;3.67;3.10;;;20.80;99.90;;;;;;5115564;28;20642;-42
2023/06/20 05:44:26;;;;;;;6.27;3.60;;;20.80;99.90;;;;;;5115649;28;20607;-42
2023/06/20 05:46:53;;;;;;;7.00;3.33;;;20.90;99.90;;;;;;5115406;28;20257;-42
2023/06/20 05:49:21;;;;;;;8.53;3.53;;;20.90;99.90;;;;;;5115358;28;20190;-43
2023/06/20 05:51:47;;;;;;;8.13;3.87;;;21.10;99.90;;;;;;5097016;28;20236;-42
2023/06/20 05:54:13;;;;;;;9.13;3.93;;;21.10;99.90;;;;;;5115217;28;20749;-42
2023/06/20 05:56:39;;;;;;;6.93;3.40;;;21.30;99.90;;;;;;5097513;28;20249;-42
2023/06/20 05:59:04;;;;;;;7.40;3.53;;;21.30;99.90;;;;;;5115536;28;20194;-43
2023/06/20 06:01:30;;;;;;;6.37;3.70;;;21.50;99.90;;;;;;5115389;28;20178;-43
2023/06/20 06:03:56;;;;;;;5.07;3.30;;;21.60;99.90;;;;;;5115352;28;20289;-42
2023/06/20 06:06:21;;;;;;;3.73;3.20;;;21.80;99.90;;;;;;5115324;28;20171;-44
2023/06/20 06:08:47;;;;;;;4.87;3.47;;;21.80;99.90;;;;;;5115241;28;20186;-42
2023/06/20 06:11:12;;;;;;;4.13;3.23;;;21.90;99.90;;;;;;5115442;28;20183;-41
2023/06/20 06:13:39;;;;;;;10.43;3.97;;;22.00;99.90;;;;;;5115119;28;20179;-40
2023/06/20 06:16:05;;;;;;;5.97;3.40;;;22.20;99.90;;;;;;5115147;28;20171;-41
2023/06/20 06:18:31;;;;;;;7.53;3.43;;;22.40;99.90;;;;;;5114890;28;20202;-42
2023/06/20 06:20:56;;;;;;;5.37;3.47;;;22.70;99.90;;;;;;5115129;28;20163;-42
2023/06/20 06:23:22;;;;;;;4.30;3.70;;;22.80;99.90;;;;;;5114762;28;20182;-42
2023/06/20 06:25:48;;;;;;;4.40;3.20;;;23.10;99.90;;;;;;5114744;28;20201;-43
2023/06/20 06:28:13;;;;;;;4.07;3.43;;;23.30;99.90;;;;;;5114657;28;20193;-43
2023/06/20 06:30:39;;;;;;;5.00;3.60;;;23.50;99.90;;;;;;5114601;28;20185;-42
2023/06/20 06:33:07;;;;;;;5.23;3.13;;;23.80;99.90;;;;;;5096189;28;20210;-43
2023/06/20 06:35:33;;;;;;;5.87;3.63;;;24.00;99.90;;;;;;5114691;28;20636;-41
2023/06/20 06:37:58;;;;;;;5.53;3.97;;;24.20;99.90;;;;;;5114696;28;20265;-42
2023/06/20 06:40:24;;;;;;;4.10;3.67;;;24.40;99.90;;;;;;5114473;28;20244;-43
2023/06/20 06:42:51;;;;;;;5.40;3.40;;;24.60;99.90;;;;;;5114572;28;20277;-39
2023/06/20 06:45:16;;;;;;;4.20;3.80;;;24.80;99.90;;;;;;5114458;28;20345;-41
2023/06/20 06:47:42;;;;;;;5.13;3.27;;;25.10;99.90;;;;;;5096230;28;20209;-43
2023/06/20 06:50:08;;;;;;;6.70;3.07;;;25.20;99.90;;;;;;5114339;28;20227;-43
2023/06/20 06:52:36;;;;;;;3.90;3.50;;;25.50;99.90;;;;;;5114138;28;20285;-44
2023/06/20 06:55:02;;;;;;;3.63;3.33;;;25.60;99.90;;;;;;5114142;28;20201;-43
2023/06/20 06:57:28;;;;;;;4.77;3.30;;;25.70;99.90;;;;;;5114179;28;20178;-42
2023/06/20 06:59:53;;;;;;;3.80;3.43;;;25.90;99.90;;;;;;5095889;28;20227;-45
2023/06/20 07:02:20;;;;;;;4.03;3.63;;;25.90;99.90;;;;;;5114614;28;20182;-47
2023/06/20 07:04:46;;;;;;;7.63;4.10;;;25.90;99.90;;;;;;5113934;28;20569;-47
2023/06/20 07:07:11;;;;;;;4.20;3.17;;;26.00;99.90;;;;;;5114033;28;20186;-48
2023/06/20 07:09:37;;;;;;;4.53;3.43;;;25.90;99.90;;;;;;5113983;28;20185;-46
2023/06/20 07:12:06;;;;;;;4.00;3.60;;;25.90;99.90;;;;;;5114106;28;20562;-46
2023/06/20 07:14:33;;;;;;;3.87;3.43;;;25.90;99.90;;;;;;5114321;28;20251;-47
2023/06/20 07:16:59;;;;;;;5.50;4.10;;;26.00;99.90;;;;;;5114095;28;20587;-46
2023/06/20 07:19:25;;;;;;;4.53;3.73;;;26.20;99.90;;;;;;5113858;28;20277;-47
2023/06/20 07:21:50;;;;;;;4.33;3.93;;;26.30;99.90;;;;;;5114070;28;20548;-46
2023/06/20 07:24:16;;;;;;;4.57;3.80;;;26.50;99.90;;;;;;5113674;28;20202;-47
2023/06/20 07:26:41;;;;;;;6.13;3.70;;;26.60;99.90;;;;;;5113782;28;20590;-49
2023/06/20 07:29:07;;;;;;;4.97;3.97;;;26.80;99.90;;;;;;5113725;28;20182;-48
2023/06/20 07:31:33;;;;;;;4.37;3.40;;;26.90;99.90;;;;;;5113625;28;20216;-49
2023/06/20 07:33:58;;;;;;;3.60;3.30;;;26.90;99.90;;;;;;5113668;28;20681;-49
2023/06/20 07:36:24;;;;;;;4.37;3.90;;;26.90;99.90;;;;;;5113925;28;20178;-49
2023/06/20 07:38:49;;;;;;;5.43;4.00;;;27.10;99.90;;;;;;5113650;28;20630;-49
2023/06/20 07:41:15;;;;;;;5.90;3.60;;;27.10;99.90;;;;;;5113868;28;20175;-49
2023/06/20 07:43:40;;;;;;;4.97;4.17;;;27.10;99.90;;;;;;5113446;28;20630;-49
2023/06/20 07:46:06;;;;;;;4.37;3.97;;;27.10;99.90;;;;;;5113848;28;20201;-49
2023/06/20 07:48:32;;;;;;;3.97;3.57;;;27.10;99.90;;;;;;5113636;28;20543;-49
2023/06/20 07:50:57;;;;;;;5.67;4.03;;;27.20;99.90;;;;;;5113508;28;20257;-49
2023/06/20 07:53:23;;;;;;;4.97;4.47;;;27.20;99.90;;;;;;5113409;28;20210;-49
2023/06/20 07:55:49;;;;;;;6.70;4.20;;;27.10;99.90;;;;;;5113700;28;20315;-49
2023/06/20 07:58:15;;;;;;;8.13;5.10;;;27.10;99.90;;;;;;5095211;28;20185;-49
2023/06/20 08:00:40;;;;;;;7.90;4.93;;;27.10;99.90;;;;;;5114490;28;20178;-50
2023/06/20 08:03:07;;;;;;;5.77;4.43;;;27.10;99.90;;;;;;5117382;28;20186;-49
2023/06/20 08:05:33;;;;;;;4.80;4.30;;;27.00;99.90;;;;;;5117568;28;20576;-50
2023/06/20 08:07:58;;;;;;;5.10;4.60;;;27.00;99.90;;;;;;5117628;28;20187;-49
2023/06/20 08:10:24;;;;;;;5.93;4.73;;;26.90;99.90;;;;;;5117582;28;20197;-50
2023/06/20 08:12:50;;;;;;;6.63;4.53;;;27.00;99.90;;;;;;5117421;28;20263;-49
2023/06/20 08:15:15;;;;;;;6.83;4.30;;;27.00;99.90;;;;;;5117402;28;20243;-49
2023/06/20 08:17:41;;;;;;;6.90;4.10;;;27.10;99.90;;;;;;5117376;28;20182;-49
2023/06/20 08:20:09;;;;;;;5.07;4.57;;;27.10;99.90;;;;;;5117180;28;20197;-50
2023/06/20 08:22:35;;;;;;;6.33;4.53;;;27.30;99.90;;;;;;5116980;28;20269;-49
2023/06/20 08:25:01;;;;;;;4.93;4.40;;;27.60;99.90;;;;;;5117262;28;20732;-50
2023/06/20 08:27:26;;;;;;;5.40;4.20;;;27.90;99.90;;;;;;5117030;28;20528;-49
2023/06/20 08:29:52;;;;;;;8.10;4.50;;;28.10;99.90;;;;;;5116931;28;20203;-49
2023/06/20 08:32:17;;;;;;;7.03;4.73;;;28.20;99.90;;;;;;5116821;28;20284;-50
2023/06/20 08:34:43;;;;;;;8.27;4.50;;;28.20;99.90;;;;;;5116769;28;20201;-50
2023/06/20 08:37:09;;;;;;;5.00;4.60;;;28.30;99.90;;;;;;5116756;28;20561;-50
2023/06/20 08:39:35;;;;;;;6.43;4.23;;;28.50;99.90;;;;;;5117016;28;20231;-50
2023/06/20 08:42:01;;;;;;;6.22;4.60;;;28.60;99.90;;;;;;5116919;28;20197;-50
2023/06/20 08:44:27;;;;;;;6.17;4.70;;;28.60;99.90;;;;;;5116888;28;20206;-50
2023/06/20 08:46:57;;;;;;;5.60;4.50;;;28.60;99.90;;;;;;5116732;28;20189;-50
2023/06/20 08:49:26;;;;;;;4.72;4.20;;;28.70;99.90;;;;;;5116510;28;20223;-50
2023/06/20 08:51:57;;;;;;;4.50;4.10;;;28.90;99.90;;;;;;5116403;28;20202;-50
2023/06/20 08:54:25;;;;;;;4.78;4.22;;;28.90;99.90;;;;;;5116673;28;20202;-50
2023/06/20 08:56:51;;;;;;;5.35;4.57;;;29.00;99.90;;;;;;5116961;28;20564;-49
2023/06/20 08:59:25;;;;;;;5.35;4.40;;;29.20;99.90;;;;;;5116364;28;20265;-49
2023/06/20 09:01:51;;;;;;;6.22;4.20;;;29.30;99.90;;;;;;5116313;28;20615;-50
2023/06/20 09:04:18;;;;;;;5.00;4.10;;;29.30;99.90;;;;;;5116219;28;20255;-50
2023/06/20 09:06:45;;;;;;;5.38;4.50;;;29.30;99.90;;;;;;5116181;28;20598;-48
2023/06/20 09:09:17;;;;;;;4.55;3.88;;;29.50;99.90;;;;;;5116454;28;20214;-49
2023/06/20 09:11:58;;;;;;;5.80;4.10;;;29.60;99.90;;;;;;5097677;28;20202;-50
2023/06/20 09:14:28;;;;;;;7.10;4.40;;;29.70;99.90;;;;;;5116382;28;20198;-43
2023/06/20 09:16:55;;;;;;;6.05;4.90;;;29.80;99.90;;;;;;5116381;28;20247;-43
2023/06/20 09:19:24;;;;;;;5.03;4.32;;;29.70;99.90;;;;;;5115840;28;20273;-43
2023/06/20 09:21:49;;;;;;;4.55;4.07;;;29.80;99.90;;;;;;5116164;28;20583;-43
2023/06/20 09:24:19;;;;;;;4.85;4.45;;;30.00;99.90;;;;;;5115837;28;20202;-43
2023/06/20 09:26:48;;;;;;;4.90;4.47;;;30.00;99.90;;;;;;5097558;28;20174;-43
2023/06/20 09:29:15;;;;;;;4.95;4.25;;;30.10;99.90;;;;;;5116099;28;20178;-45
2023/06/20 09:31:50;;;;;;;4.82;4.30;;;30.30;99.90;;;;;;5097512;28;20206;-45
2023/06/20 09:34:18;;;;;;;5.38;3.47;;;30.50;99.90;;;;;;5115689;28;20198;-43
2023/06/20 09:36:44;;;;;;;6.18;3.60;;;30.70;99.90;;;;;;5115984;28;20193;-43
2023/06/20 09:39:13;;;;;;;3.63;3.33;;;30.80;99.90;;;;;;5115684;28;20170;-43
2023/06/20 09:41:46;;;;;;;4.85;3.60;;;30.80;99.90;;;;;;5115597;28;20726;-44
2023/06/20 09:44:13;;;;;;;4.00;3.58;;;30.90;99.90;;;;;;5097211;28;20202;-44
2023/06/20 09:46:39;;;;;;;4.90;3.80;;;31.00;99.90;;;;;;5116213;28;20259;-43
2023/06/20 09:49:05;;;;;;;3.72;3.17;;;31.00;99.90;;;;;;5115992;28;20642;-44
2023/06/20 09:51:33;;;;;;;4.63;3.67;;;31.00;99.90;;;;;;5115271;28;20206;-44
2023/06/20 09:54:05;;;;;;;4.28;3.08;;;31.10;99.90;;;;;;5115294;28;20201;-43
2023/06/20 09:56:39;;;;;;;3.75;3.20;;;31.20;99.90;;;;;;5115817;28;20219;-43
2023/06/20 09:59:08;;;;;;;3.50;3.00;;;31.20;99.90;;;;;;5115611;28;20227;-43
2023/06/20 10:01:34;;;;;;;2.67;2.47;;;31.30;99.90;;;;;;5115515;28;20204;-44
2023/06/20 10:04:00;;;;;;;5.13;2.85;;;31.40;99.90;;;;;;5115090;28;20194;-45
2023/06/20 10:06:26;;;;;;;3.22;2.72;;;31.40;99.90;;;;;;5115050;28;20273;-44
2023/06/20 10:08:52;;;;;;;3.92;2.53;;;31.50;99.90;;;;;;5115044;28;20178;-43
2023/06/20 10:11:21;;;;;;;3.00;2.80;;;31.50;99.90;;;;;;5114940;28;20174;-49
2023/06/20 10:13:47;;;;;;;3.20;2.90;;;31.50;99.90;;;;;;5115041;28;20194;-48
2023/06/20 10:16:12;;;;;;;3.45;2.88;;;31.50;99.90;;;;;;5115132;28;20182;-49
2023/06/20 10:18:40;;;;;;;5.20;2.92;;;31.60;99.90;;;;;;5114925;28;20202;-49
2023/06/20 10:21:07;;;;;;;3.00;2.80;;;31.70;99.90;;;;;;5115088;28;20208;-49
2023/06/20 10:23:38;;;;;;;3.10;2.83;;;31.80;99.90;;;;;;5114065;28;20188;-49
2023/06/20 10:26:07;;;;;;;3.00;2.70;;;32.00;99.90;;;;;;5114990;28;20243;-49
2023/06/20 10:28:35;;;;;;;3.63;2.60;;;32.00;99.90;;;;;;5114624;28;20665;-49
2023/06/20 10:31:01;;;;;;;3.25;2.95;;;32.10;99.90;;;;;;5114799;28;20185;-49
2023/06/20 10:33:31;;;;;;;3.40;2.80;;;32.20;99.90;;;;;;5114439;28;20190;-48
2023/06/20 10:36:12;;;;;;;3.45;2.75;;;32.20;99.90;;;;;;5114832;28;20174;-49
2023/06/20 10:38:59;;;;;;;2.88;2.60;;;32.20;99.90;;;;;;5114605;28;20680;-50
2023/06/20 10:41:28;;;;;;;5.00;2.72;;;32.30;99.90;;;;;;5115020;28;20697;-50
2023/06/20 10:43:55;;;;;;;4.88;2.88;;;32.40;99.90;;;;;;5114297;28;20610;-50
2023/06/20 10:46:34;;;;;;;3.78;2.78;;;32.50;99.90;;;;;;5114572;28;20173;-50
2023/06/20 10:48:59;;;;;;;2.70;2.50;;;32.50;99.90;;;;;;5114468;28;20166;-49
2023/06/20 10:51:25;;;;;;;2.90;2.70;;;32.60;99.90;;;;;;5114508;28;20179;-49
2023/06/20 10:53:51;;;;;;;2.90;2.70;;;32.70;99.90;;;;;;5114143;28;20197;-49
2023/06/20 10:56:27;;;;;;;2.90;2.70;;;32.70;99.90;;;;;;5114182;28;20170;-50
2023/06/20 10:58:53;;;;;;;2.65;2.45;;;32.70;99.90;;;;;;5113815;28;20698;-49
2023/06/20 11:01:19;;;;;;;3.38;2.63;;;32.80;99.90;;;;;;5114325;28;20186;-51
2023/06/20 11:03:45;;;;;;;3.20;2.72;;;32.90;99.90;;;;;;5113977;28;20568;-49
2023/06/20 11:06:17;;;;;;;2.80;2.60;;;32.90;99.90;;;;;;5114060;28;20177;-49
2023/06/20 11:08:45;;;;;;;4.80;3.10;;;33.00;99.90;;;;;;5114106;28;20184;-49
2023/06/20 11:11:11;;;;;;;2.92;2.72;;;33.10;99.90;;;;;;5113874;28;20708;-49
2023/06/20 11:13:43;;;;;;;2.70;2.50;;;33.20;99.90;;;;;;5114148;28;20166;-50
2023/06/20 11:16:17;;;;;;;3.22;2.55;;;33.30;99.90;;;;;;5114134;28;20258;-50
2023/06/20 11:18:43;;;;;;;2.70;2.50;;;33.40;99.90;;;;;;5114064;28;20242;-50
2023/06/20 11:21:09;;;;;;;2.88;2.63;;;33.50;99.90;;;;;;5113811;28;20646;-50
2023/06/20 11:23:35;;;;;;;2.78;2.58;;;33.40;99.90;;;;;;5113705;28;20593;-49
2023/06/20 11:26:00;;;;;;;2.75;2.55;;;33.40;99.90;;;;;;5113988;28;20181;-50
2023/06/20 11:28:26;;;;;;;2.70;2.28;;;33.50;99.90;;;;;;5114336;28;20181;-50
2023/06/20 11:30:52;;;;;;;2.58;2.38;;;33.60;99.90;;;;;;5113685;28;20186;-50
2023/06/20 11:33:18;;;;;;;2.50;2.30;;;33.70;99.90;;;;;;5113627;28;20632;-50
2023/06/20 11:35:53;;;;;;;2.45;2.25;;;33.80;99.90;;;;;;5114814;28;20197;-50
2023/06/20 11:38:29;;;;;;;2.53;2.33;;;33.80;99.90;;;;;;5118158;28;20177;-50
2023/06/20 11:41:06;;;;;;;2.15;2.03;;;33.80;99.90;;;;;;5118541;28;20158;-50
2023/06/20 11:43:40;;;;;;;3.20;2.70;;;34.00;99.90;;;;;;5117793;28;20165;-51
2023/06/20 11:46:06;;;;;;;2.63;2.20;;;34.10;99.90;;;;;;5118044;28;20158;-51
2023/06/20 11:48:32;;;;;;;2.30;2.10;;;34.20;99.90;;;;;;5117982;28;20182;-50
2023/06/20 11:50:58;;;;;;;2.80;2.50;;;34.20;99.90;;;;;;5117984;28;20178;-50
2023/06/20 11:53:28;;;;;;;2.60;2.40;;;34.00;99.90;;;;;;5117750;28;20216;-50
2023/06/20 11:55:57;;;;;;;2.58;2.38;;;34.10;99.90;;;;;;5117923;28;20245;-50
2023/06/20 11:58:23;;;;;;;2.70;2.50;;;34.20;99.90;;;;;;5117491;28;20231;-51
2023/06/20 12:01:20;;;;;;;2.90;2.70;;;34.20;99.90;;;;;;5117529;28;20663;-51
2023/06/20 12:04:05;;;;;;;2.78;2.40;;;34.50;99.90;;;;;;5101249;28;20217;-50
2023/06/20 12:06:36;;;;;;;2.65;2.45;;;34.50;99.90;;;;;;5117685;28;20238;-49
2023/06/20 12:09:11;;;;;;;2.20;2.05;;;34.60;99.90;;;;;;5117483;28;20163;-50
2023/06/20 12:11:49;;;;;;;3.72;2.60;;;34.80;99.90;;;;;;5117560;28;20185;-50
2023/06/20 12:14:16;;;;;;;2.75;2.55;;;34.80;99.90;;;;;;5117368;28;20662;-50
2023/06/20 12:16:42;;;;;;;3.17;2.33;;;34.80;99.90;;;;;;5117505;28;20193;-50
2023/06/20 12:19:08;;;;;;;2.60;2.40;;;34.80;99.90;;;;;;5117117;28;20185;-50
2023/06/20 12:21:33;;;;;;;2.78;2.53;;;34.90;99.90;;;;;;5117169;28;20547;-50
2023/06/20 12:24:00;;;;;;;5.00;2.55;;;34.90;99.90;;;;;;5117232;28;20248;-50
2023/06/20 12:26:25;;;;;;;4.32;2.70;;;34.90;99.90;;;;;;5116963;28;20261;-49
2023/06/20 12:28:52;;;;;;;3.55;2.53;;;34.70;99.90;;;;;;5116967;28;20213;-49
2023/06/20 12:31:17;;;;;;;2.75;2.47;;;34.60;99.90;;;;;;5116888;28;20174;-50
2023/06/20 12:33:43;;;;;;;4.80;2.90;;;34.50;99.90;;;;;;5117367;28;20219;-50
2023/06/20 12:36:08;;;;;;;2.78;2.58;;;34.60;99.90;;;;;;5117411;28;20540;-51
2023/06/20 12:38:34;;;;;;;3.70;2.83;;;34.80;99.90;;;;;;5116765;28;20249;-50
2023/06/20 12:41:00;;;;;;;2.65;2.45;;;34.90;99.90;;;;;;5117006;28;20270;-49
2023/06/20 12:43:26;;;;;;;4.22;2.50;;;35.10;99.90;;;;;;5116583;28;20226;-50
2023/06/20 12:45:52;;;;;;;2.60;2.40;;;35.20;99.90;;;;;;5116619;28;20174;-49
2023/06/20 12:48:18;;;;;;;2.53;2.28;;;35.40;99.90;;;;;;5116392;28;20244;-50